createdAt,value
2022-11-21T00:01:30.578Z,4.70
2022-11-21T00:03:58.418Z,4.70
2022-11-21T00:06:28.434Z,4.70
2022-11-21T00:08:57.069Z,4.80
2022-11-21T00:11:25.026Z,4.80
2022-11-21T00:13:54.383Z,4.80
2022-11-21T00:16:22.287Z,4.80
2022-11-21T00:18:50.251Z,4.70
2022-11-21T00:21:20.403Z,4.70
2022-11-21T00:23:49.111Z,4.70
2022-11-21T00:26:18.173Z,4.80
2022-11-21T00:28:46.552Z,4.70
2022-11-21T00:31:21.959Z,4.70
2022-11-21T00:33:49.948Z,4.60
2022-11-21T00:36:18.104Z,4.70
2022-11-21T00:38:46.303Z,4.70
2022-11-21T00:41:14.320Z,4.80
2022-11-21T00:43:42.260Z,4.80
2022-11-21T00:46:12.154Z,4.80
2022-11-21T00:48:41.523Z,4.70
2022-11-21T00:51:09.492Z,4.70
2022-11-21T00:53:37.462Z,4.70
2022-11-21T00:56:07.206Z,4.70
2022-11-21T00:58:35.551Z,4.70
2022-11-21T01:01:05.434Z,4.80
2022-11-21T01:03:34.851Z,4.90
2022-11-21T01:06:06.690Z,5.00
2022-11-21T01:08:37.347Z,5.10
2022-11-21T01:11:06.065Z,5.10
2022-11-21T01:13:34.725Z,5.10
2022-11-21T01:16:06.874Z,5.10
2022-11-21T01:18:35.064Z,5.10
2022-11-21T01:21:06.524Z,5.10
2022-11-21T01:23:34.743Z,5.10
2022-11-21T01:26:03.720Z,5.20
2022-11-21T01:28:31.896Z,5.10
2022-11-21T01:31:05.274Z,5.10
2022-11-21T01:33:33.272Z,5.10
2022-11-21T01:36:12.241Z,5.00
2022-11-21T01:38:40.950Z,5.00
2022-11-21T01:41:09.551Z,5.00
2022-11-21T01:43:37.629Z,4.90
2022-11-21T01:46:11.420Z,4.80
2022-11-21T01:48:43.189Z,4.90
2022-11-21T01:51:17.086Z,4.90
2022-11-21T01:53:50.604Z,4.70
2022-11-21T01:56:18.651Z,4.70
2022-11-21T01:58:48.498Z,4.60
2022-11-21T02:01:16.550Z,4.60
2022-11-21T02:03:46.536Z,4.50
2022-11-21T02:06:15.924Z,4.50
2022-11-21T02:08:46.316Z,4.50
2022-11-21T02:11:22.959Z,4.50
2022-11-21T02:13:50.901Z,4.50
2022-11-21T02:16:18.796Z,4.40
2022-11-21T02:18:46.748Z,4.40
2022-11-21T02:21:24.711Z,4.40
2022-11-21T02:24:00.673Z,4.40
2022-11-21T02:26:31.174Z,4.40
2022-11-21T02:28:59.631Z,4.50
2022-11-21T02:31:27.718Z,4.50
2022-11-21T02:33:57.629Z,4.60
2022-11-21T02:36:47.535Z,4.60
2022-11-21T02:39:20.739Z,4.60
2022-11-21T02:42:00.428Z,4.60
2022-11-21T02:44:34.699Z,4.60
2022-11-21T02:47:02.613Z,4.60
2022-11-21T02:49:39.074Z,4.60
2022-11-21T02:52:06.981Z,4.70
2022-11-21T02:54:34.840Z,4.80
2022-11-21T02:57:04.046Z,4.80
2022-11-21T02:59:32.001Z,4.80
2022-11-21T03:02:01.030Z,4.80
2022-11-21T03:04:29.476Z,4.80
2022-11-21T03:06:57.567Z,4.80
2022-11-21T03:09:25.536Z,4.70
2022-11-21T03:11:53.579Z,4.80
2022-11-21T03:14:23.084Z,4.70
2022-11-21T03:16:50.945Z,4.70
2022-11-21T03:19:18.903Z,4.70
2022-11-21T03:21:46.847Z,4.60
2022-11-21T03:24:14.897Z,4.50
2022-11-21T03:26:42.862Z,4.40
2022-11-21T03:29:10.786Z,4.40
2022-11-21T03:31:40.043Z,4.40
2022-11-21T03:34:08.010Z,4.40
2022-11-21T03:36:36.062Z,4.40
2022-11-21T03:39:04.285Z,4.50
2022-11-21T03:41:32.188Z,4.50
2022-11-21T03:44:02.950Z,4.50
2022-11-21T03:46:32.061Z,4.50
2022-11-21T03:49:01.344Z,4.40
2022-11-21T03:51:29.479Z,4.20
2022-11-21T03:53:57.452Z,4.10
2022-11-21T03:56:26.341Z,4.10
2022-11-21T03:58:55.028Z,4.10
2022-11-21T04:01:23.715Z,4.10
2022-11-21T04:03:52.188Z,4.10
2022-11-21T04:06:23.026Z,4.00
2022-11-21T04:08:51.394Z,3.90
2022-11-21T04:11:21.457Z,3.80
2022-11-21T04:13:49.856Z,3.70
2022-11-21T04:16:17.813Z,3.70
2022-11-21T04:18:48.422Z,3.70
2022-11-21T04:21:16.383Z,3.60
2022-11-21T04:23:45.945Z,3.60
2022-11-21T04:26:13.879Z,3.70
2022-11-21T04:28:41.871Z,3.60
2022-11-21T04:31:11.321Z,3.70
2022-11-21T04:33:42.572Z,3.80
2022-11-21T04:36:11.125Z,3.90
2022-11-21T04:38:39.079Z,3.90
2022-11-21T04:41:08.396Z,3.80
2022-11-21T04:43:36.592Z,3.80
2022-11-21T04:46:04.530Z,3.80
2022-11-21T04:48:32.718Z,3.80
2022-11-21T04:51:00.803Z,3.80
2022-11-21T04:53:28.704Z,3.80
2022-11-21T04:55:56.647Z,3.90
2022-11-21T04:58:26.004Z,3.90
2022-11-21T05:00:53.869Z,3.90
2022-11-21T05:03:21.808Z,4.00
2022-11-21T05:05:50.186Z,4.00
2022-11-21T05:08:18.182Z,4.00
2022-11-21T05:11:03.357Z,4.00
2022-11-21T05:13:32.656Z,4.10
2022-11-21T05:16:00.604Z,4.20
2022-11-21T05:18:28.609Z,4.20
2022-11-21T05:20:56.709Z,4.20
2022-11-21T05:23:24.808Z,4.20
2022-11-21T05:25:52.758Z,4.30
2022-11-21T05:28:20.674Z,4.40
2022-11-21T05:30:49.975Z,4.40
2022-11-21T05:33:17.925Z,4.40
2022-11-21T05:35:46.190Z,4.40
2022-11-21T05:38:14.177Z,4.40
2022-11-21T05:40:42.126Z,4.40
2022-11-21T05:43:29.727Z,4.40
2022-11-21T05:45:59.320Z,4.40
2022-11-21T05:48:27.270Z,4.40
2022-11-21T05:50:55.339Z,4.50
2022-11-21T05:53:23.302Z,4.40
2022-11-21T05:55:51.235Z,4.40
2022-11-21T05:58:19.209Z,4.40
2022-11-21T06:00:47.441Z,4.40
2022-11-21T06:03:27.644Z,4.40
2022-11-21T06:06:04.426Z,4.40
2022-11-21T06:08:35.239Z,4.30
2022-11-21T06:11:04.398Z,4.30
2022-11-21T06:13:33.740Z,4.30
2022-11-21T06:16:03.521Z,4.40
2022-11-21T06:18:35.025Z,4.50
2022-11-21T06:21:03.940Z,4.50
2022-11-21T06:23:32.494Z,4.60
2022-11-21T06:26:01.542Z,4.50
2022-11-21T06:28:33.887Z,4.60
2022-11-21T06:31:22.653Z,4.60
2022-11-21T06:33:55.362Z,4.60
2022-11-21T06:36:23.630Z,4.50
2022-11-21T06:38:55.548Z,4.50
2022-11-21T06:41:25.228Z,4.50
2022-11-21T06:43:53.436Z,4.60
2022-11-21T06:46:21.363Z,4.70
2022-11-21T06:48:49.324Z,4.70
2022-11-21T06:51:21.165Z,4.80
2022-11-21T06:53:55.733Z,4.80
2022-11-21T06:56:23.810Z,4.80
2022-11-21T06:58:55.159Z,4.80
2022-11-21T07:01:23.531Z,4.80
2022-11-21T07:03:52.294Z,4.80
2022-11-21T07:06:22.049Z,4.90
2022-11-21T07:09:17.490Z,4.90
2022-11-21T07:11:41.212Z,4.90
2022-11-21T07:14:09.357Z,5.00
2022-11-21T07:16:37.759Z,4.90
2022-11-21T07:19:06.230Z,5.00
2022-11-21T07:21:35.893Z,5.00
2022-11-21T07:24:03.877Z,5.00
2022-11-21T07:26:31.906Z,5.10
2022-11-21T07:29:00.004Z,5.10
2022-11-21T07:31:27.989Z,5.10
2022-11-21T07:33:56.182Z,5.20
2022-11-21T07:36:24.215Z,5.20
2022-11-21T07:38:53.503Z,5.20
2022-11-21T07:41:24.158Z,5.20
2022-11-21T07:43:52.114Z,5.20
2022-11-21T07:46:19.966Z,5.20
2022-11-21T07:48:48.583Z,5.20
2022-11-21T07:51:16.689Z,5.20
2022-11-21T07:53:44.733Z,5.30
2022-11-21T07:56:14.065Z,5.30
2022-11-21T07:58:42.032Z,5.40
2022-11-21T08:01:10.016Z,5.50
2022-11-21T08:03:38.190Z,5.50
2022-11-21T08:06:06.373Z,5.60
2022-11-21T08:08:34.292Z,5.60
2022-11-21T08:11:06.424Z,5.70
2022-11-21T08:13:35.960Z,5.70
2022-11-21T08:16:04.914Z,5.70
2022-11-21T08:18:33.336Z,5.70
2022-11-21T08:21:03.163Z,5.80
2022-11-21T08:23:31.636Z,5.80
2022-11-21T08:25:59.592Z,5.70
2022-11-21T08:28:27.598Z,5.80
2022-11-21T08:30:57.641Z,5.90
2022-11-21T08:33:25.622Z,5.90
2022-11-21T08:35:53.594Z,6.00
2022-11-21T08:38:21.589Z,6.00
2022-11-21T08:41:14.784Z,6.00
2022-11-21T08:43:45.620Z,5.90
2022-11-21T08:46:15.001Z,5.80
2022-11-21T08:48:44.415Z,5.90
2022-11-21T08:51:12.421Z,6.00
2022-11-21T08:53:40.368Z,6.00
2022-11-21T08:56:10.096Z,6.10
2022-11-21T08:58:38.117Z,6.10
2022-11-21T09:01:08.047Z,6.10
2022-11-21T09:03:37.482Z,6.10
2022-11-21T09:06:05.678Z,6.20
2022-11-21T09:08:37.807Z,6.30
2022-11-21T09:11:10.955Z,6.30
2022-11-21T09:13:38.881Z,6.30
2022-11-21T09:16:24.417Z,6.30
2022-11-21T09:18:54.452Z,6.20
2022-11-21T09:21:22.821Z,6.20
2022-11-21T09:23:50.666Z,6.20
2022-11-21T09:26:18.639Z,6.20
2022-11-21T09:28:47.027Z,6.30
2022-11-21T09:31:15.118Z,6.40
2022-11-21T09:33:42.970Z,6.40
2022-11-21T09:36:12.198Z,6.50
2022-11-21T09:38:40.142Z,6.50
2022-11-21T09:41:32.176Z,6.50
2022-11-21T09:44:08.320Z,6.30
2022-11-21T09:46:44.611Z,6.20
2022-11-21T09:49:14.642Z,6.10
2022-11-21T09:51:46.314Z,6.10
2022-11-21T09:54:19.467Z,6.00
2022-11-21T09:56:48.954Z,6.00
2022-11-21T09:59:31.024Z,5.90
2022-11-21T10:01:58.998Z,6.00
2022-11-21T10:04:29.411Z,6.00
2022-11-21T10:07:04.944Z,6.00
2022-11-21T10:09:44.566Z,6.20
2022-11-21T10:12:39.885Z,6.20
2022-11-21T10:15:26.961Z,6.20
2022-11-21T10:18:10.513Z,6.60
2022-11-21T10:20:55.474Z,6.90
2022-11-21T10:23:40.152Z,6.90
2022-11-21T10:26:17.474Z,6.90
2022-11-21T10:28:52.621Z,6.90
2022-11-21T10:31:21.290Z,6.90
2022-11-21T10:33:51.278Z,6.80
2022-11-21T10:36:31.601Z,7.00
2022-11-21T10:39:06.497Z,7.00
2022-11-21T10:41:43.832Z,7.00
2022-11-21T10:44:41.545Z,7.10
2022-11-21T10:47:16.769Z,7.20
2022-11-21T10:49:47.910Z,7.30
2022-11-21T10:52:20.420Z,7.20
2022-11-21T10:55:09.247Z,7.40
2022-11-21T10:57:44.455Z,7.30
2022-11-21T11:00:22.384Z,7.20
2022-11-21T11:03:07.942Z,7.40
2022-11-21T11:05:37.416Z,7.50
2022-11-21T11:08:08.328Z,7.70
2022-11-21T11:10:38.810Z,7.90
2022-11-21T11:13:45.787Z,7.80
2022-11-21T11:16:22.112Z,7.80
2022-11-21T11:18:56.207Z,7.80
2022-11-21T11:21:26.153Z,7.80
2022-11-21T11:23:55.933Z,7.80
2022-11-21T11:26:30.463Z,7.70
2022-11-21T11:29:10.212Z,7.80
2022-11-21T11:31:42.968Z,7.80
2022-11-21T11:34:14.835Z,7.80
2022-11-21T11:36:57.027Z,7.80
2022-11-21T11:39:37.373Z,7.80
2022-11-21T11:42:54.814Z,7.90
2022-11-21T11:45:59.484Z,8.10
2022-11-21T11:48:30.096Z,8.20
2022-11-21T11:51:04.451Z,8.50
2022-11-21T11:53:38.020Z,8.60
2022-11-21T11:56:13.092Z,8.50
2022-11-21T11:58:47.240Z,8.30
2022-11-21T12:01:18.179Z,8.20
2022-11-21T12:03:57.802Z,8.40
2022-11-21T12:06:46.861Z,8.60
2022-11-21T12:09:24.592Z,8.50
2022-11-21T12:12:08.759Z,8.90
2022-11-21T12:15:16.213Z,9.00
2022-11-21T12:17:50.045Z,8.70
2022-11-21T12:20:22.355Z,8.70
2022-11-21T12:22:53.380Z,8.70
2022-11-21T12:25:25.027Z,8.80
2022-11-21T12:27:56.091Z,8.80
2022-11-21T12:30:52.506Z,8.70
2022-11-21T12:33:24.386Z,8.80
2022-11-21T12:36:19.031Z,8.70
2022-11-21T12:39:22.564Z,8.80
2022-11-21T12:42:17.192Z,8.60
2022-11-21T12:45:01.926Z,8.50
2022-11-21T12:48:08.291Z,8.50
2022-11-21T12:51:04.370Z,8.60
2022-11-21T12:53:59.776Z,8.80
2022-11-21T12:56:33.823Z,9.00
2022-11-21T12:59:04.444Z,9.20
2022-11-21T13:01:39.703Z,9.40
2022-11-21T13:04:14.320Z,9.50
2022-11-21T13:06:44.602Z,9.30
2022-11-21T13:09:16.866Z,9.30
2022-11-21T13:12:01.224Z,9.10
2022-11-21T13:14:43.507Z,8.80
2022-11-21T13:17:21.906Z,8.60
2022-11-21T13:19:55.600Z,8.50
2022-11-21T13:22:51.180Z,8.20
2022-11-21T13:25:40.267Z,8.10
2022-11-21T13:28:30.890Z,8.00
2022-11-21T13:31:03.280Z,7.90
2022-11-21T13:33:49.102Z,8.00
2022-11-21T13:36:38.261Z,8.00
2022-11-21T13:39:34.628Z,7.90
2022-11-21T13:42:31.212Z,7.90
2022-11-21T13:44:59.900Z,8.00
2022-11-21T13:48:04.289Z,8.00
2022-11-21T13:50:48.606Z,7.90
2022-11-21T13:53:36.116Z,7.90
2022-11-21T13:56:12.932Z,7.90
2022-11-21T13:58:57.212Z,8.00
2022-11-21T14:01:53.081Z,8.00
2022-11-21T14:04:51.963Z,8.00
2022-11-21T14:07:30.887Z,8.00
2022-11-21T14:10:02.467Z,8.00
2022-11-21T14:12:38.319Z,8.00
2022-11-21T14:15:26.491Z,8.00
2022-11-21T14:17:57.067Z,8.10
2022-11-21T14:20:27.317Z,8.00
2022-11-21T14:23:01.113Z,8.00
2022-11-21T14:25:47.358Z,7.90
2022-11-21T14:28:18.758Z,7.80
2022-11-21T14:30:46.711Z,7.60
2022-11-21T14:33:36.074Z,7.50
2022-11-21T14:36:07.740Z,7.30
2022-11-21T14:38:41.722Z,7.20
2022-11-21T14:41:24.974Z,7.10
2022-11-21T14:44:03.159Z,7.00
2022-11-21T14:46:32.796Z,6.90
2022-11-21T14:49:23.098Z,6.90
2022-11-21T14:51:54.217Z,6.80
2022-11-21T14:54:25.626Z,6.70
2022-11-21T14:57:00.310Z,6.60
2022-11-21T14:59:31.512Z,6.60
2022-11-21T15:02:03.722Z,6.40
2022-11-21T15:04:33.934Z,6.40
2022-11-21T15:07:01.997Z,6.30
2022-11-21T15:10:26.716Z,6.20
2022-11-21T15:12:29.027Z,6.20
2022-11-21T15:15:00.742Z,6.20
2022-11-21T15:17:30.051Z,6.10
2022-11-21T15:20:11.460Z,6.00
2022-11-21T15:22:42.229Z,5.90
2022-11-21T15:25:16.932Z,5.80
2022-11-21T15:27:47.185Z,5.90
2022-11-21T15:30:29.310Z,5.70
2022-11-21T15:33:11.368Z,5.70
2022-11-21T15:35:48.771Z,5.60
2022-11-21T15:38:25.959Z,5.60
2022-11-21T15:41:05.020Z,5.50
2022-11-21T15:43:45.758Z,5.50
2022-11-21T15:46:17.100Z,5.60
2022-11-21T15:48:47.178Z,5.60
2022-11-21T15:51:15.840Z,5.60
2022-11-21T15:53:44.399Z,5.60
2022-11-21T15:56:21.240Z,5.60
2022-11-21T15:58:52.136Z,5.60
2022-11-21T16:01:21.677Z,5.60
2022-11-21T16:03:50.728Z,5.60
2022-11-21T16:06:19.322Z,5.60
2022-11-21T16:08:47.516Z,5.50
2022-11-21T16:11:23.659Z,5.60
2022-11-21T16:13:54.167Z,5.60
2022-11-21T16:16:23.920Z,5.70
2022-11-21T16:18:54.407Z,5.60
2022-11-21T16:21:22.368Z,5.60
2022-11-21T16:23:53.281Z,5.60
2022-11-21T16:26:27.795Z,5.50
2022-11-21T16:28:57.744Z,5.50
2022-11-21T16:31:27.851Z,5.60
2022-11-21T16:33:56.328Z,5.60
2022-11-21T16:36:25.875Z,5.60
2022-11-21T16:38:53.953Z,5.60
2022-11-21T16:41:23.751Z,5.50
2022-11-21T16:43:55.631Z,5.50
2022-11-21T16:46:26.236Z,5.50
2022-11-21T16:49:00.600Z,5.50
2022-11-21T16:51:29.398Z,5.50
2022-11-21T16:54:01.714Z,5.50
2022-11-21T16:56:34.350Z,5.50
2022-11-21T16:59:02.271Z,5.40
2022-11-21T17:01:31.786Z,5.50
2022-11-21T17:04:02.660Z,5.50
2022-11-21T17:06:32.994Z,5.50
2022-11-21T17:09:01.865Z,5.50
2022-11-21T17:11:33.111Z,5.50
2022-11-21T17:14:04.671Z,5.40
2022-11-21T17:16:35.713Z,5.40
2022-11-21T17:19:04.603Z,5.40
2022-11-21T17:21:33.395Z,5.40
2022-11-21T17:24:01.477Z,5.40
2022-11-21T17:26:30.613Z,5.40
2022-11-21T17:29:00.093Z,5.50
2022-11-21T17:31:29.041Z,5.50
2022-11-21T17:33:58.697Z,5.50
2022-11-21T17:36:28.627Z,5.60
2022-11-21T17:38:56.802Z,5.60
2022-11-21T17:41:25.857Z,5.50
2022-11-21T17:43:55.446Z,5.50
2022-11-21T17:46:26.105Z,5.50
2022-11-21T17:48:57.764Z,5.40
2022-11-21T17:51:30.040Z,5.40
2022-11-21T17:53:59.405Z,5.40
2022-11-21T17:56:29.584Z,5.40
2022-11-21T17:58:57.807Z,5.40
2022-11-21T18:01:25.940Z,5.40
2022-11-21T18:03:56.989Z,5.40
2022-11-21T18:06:25.524Z,5.40
2022-11-21T18:08:57.125Z,5.40
2022-11-21T18:11:25.905Z,5.40
2022-11-21T18:13:54.882Z,5.40
2022-11-21T18:16:24.985Z,5.30
2022-11-21T18:18:52.969Z,5.30
2022-11-21T18:21:26.126Z,5.40
2022-11-21T18:23:56.506Z,5.30
2022-11-21T18:26:27.044Z,5.30
2022-11-21T18:29:20.732Z,5.40
2022-11-21T18:31:47.251Z,5.30
2022-11-21T18:34:15.350Z,5.40
2022-11-21T18:36:43.389Z,5.40
2022-11-21T18:39:15.214Z,5.30
2022-11-21T18:41:44.305Z,5.30
2022-11-21T18:44:20.163Z,5.30
2022-11-21T18:46:49.567Z,5.30
2022-11-21T18:49:18.055Z,5.30
2022-11-21T18:51:49.026Z,5.30
2022-11-21T18:54:20.089Z,5.20
2022-11-21T18:56:47.995Z,5.30
2022-11-21T18:59:17.965Z,5.20
2022-11-21T19:01:46.186Z,5.20
2022-11-21T19:04:14.255Z,5.30
2022-11-21T19:06:42.131Z,5.30
2022-11-21T19:09:11.541Z,5.30
2022-11-21T19:11:40.966Z,5.30
2022-11-21T19:14:10.563Z,5.30
2022-11-21T19:16:38.465Z,5.40
2022-11-21T19:21:58.339Z,5.30
2022-11-21T19:24:26.309Z,5.40
2022-11-21T19:26:58.777Z,5.40
2022-11-21T19:29:27.088Z,5.40
2022-11-21T19:31:55.750Z,5.40
2022-11-21T19:34:23.633Z,5.40
2022-11-21T19:36:53.063Z,5.40
2022-11-21T19:39:20.966Z,5.30
2022-11-21T19:41:50.146Z,5.30
2022-11-21T19:44:19.720Z,5.30
2022-11-21T19:46:48.047Z,5.40
2022-11-21T19:49:19.216Z,5.40
2022-11-21T19:51:47.577Z,5.40
2022-11-21T19:54:16.631Z,5.40
2022-11-21T19:56:44.781Z,5.40
2022-11-21T19:59:14.534Z,5.40
2022-11-21T20:01:49.484Z,5.50
2022-11-21T20:04:28.651Z,5.50
2022-11-21T20:06:57.472Z,5.50
2022-11-21T20:09:25.954Z,5.50
2022-11-21T20:11:55.042Z,5.50
2022-11-21T20:14:23.414Z,5.50
2022-11-21T20:16:53.856Z,5.60
2022-11-21T20:19:24.161Z,5.60
2022-11-21T20:21:52.787Z,5.60
2022-11-21T20:24:20.949Z,5.60
2022-11-21T20:26:48.966Z,5.50
2022-11-21T20:29:17.163Z,5.60
2022-11-21T20:31:46.725Z,5.60
2022-11-21T20:34:16.575Z,5.60
2022-11-21T20:36:45.312Z,5.70
2022-11-21T20:39:15.658Z,5.70
2022-11-21T20:41:43.921Z,5.70
2022-11-21T20:45:07.281Z,5.70
2022-11-21T20:47:03.230Z,5.70
2022-11-21T20:49:32.873Z,5.70
2022-11-21T20:54:48.994Z,5.60
2022-11-21T20:57:16.912Z,5.60
2022-11-21T20:59:46.204Z,5.50
2022-11-21T21:02:14.912Z,5.50
2022-11-21T21:04:44.382Z,5.50
2022-11-21T21:07:12.782Z,5.50
2022-11-21T21:09:40.969Z,5.40
2022-11-21T21:12:09.319Z,5.40
2022-11-21T21:14:37.688Z,5.40
2022-11-21T21:17:05.834Z,5.50
2022-11-21T21:19:37.063Z,5.50
2022-11-21T21:22:08.928Z,5.40
2022-11-21T21:24:36.911Z,5.50
2022-11-21T21:27:05.183Z,5.40
2022-11-21T21:29:33.706Z,5.40
2022-11-21T21:32:01.842Z,5.30
2022-11-21T21:34:30.251Z,5.30
2022-11-21T21:36:59.238Z,5.30
2022-11-21T21:39:31.445Z,5.30
2022-11-21T21:41:59.440Z,5.30
2022-11-21T21:44:32.972Z,5.30
2022-11-21T21:47:03.661Z,5.30
2022-11-21T21:49:33.216Z,5.30
2022-11-21T21:52:01.196Z,5.30
2022-11-21T21:54:50.289Z,5.20
2022-11-21T21:57:18.522Z,5.20
2022-11-21T21:59:48.515Z,5.20
2022-11-21T22:02:16.697Z,5.20
2022-11-21T22:05:04.203Z,5.20
2022-11-21T22:07:33.091Z,5.20
2022-11-21T22:10:08.523Z,5.20
2022-11-21T22:12:44.114Z,5.20
2022-11-21T22:15:12.532Z,5.10
2022-11-21T22:17:40.731Z,5.10
2022-11-21T22:20:09.780Z,5.00
2022-11-21T22:22:37.703Z,5.00
2022-11-21T22:25:07.860Z,5.00
2022-11-21T22:27:36.082Z,5.00
2022-11-21T22:30:04.095Z,5.00
2022-11-21T22:32:32.009Z,5.00
2022-11-21T22:34:59.987Z,5.00
2022-11-21T22:37:27.937Z,5.00
2022-11-21T22:39:55.889Z,5.00
2022-11-21T22:42:26.757Z,5.00
2022-11-21T22:44:54.814Z,5.00
2022-11-21T22:47:22.761Z,5.00
2022-11-21T22:49:51.021Z,5.00
2022-11-21T22:52:19.032Z,5.00
2022-11-21T22:54:46.930Z,5.00
2022-11-21T22:57:14.846Z,5.00
2022-11-21T22:59:44.390Z,5.00
2022-11-21T23:02:12.407Z,5.00
2022-11-21T23:04:40.358Z,5.00
2022-11-21T23:07:08.951Z,5.00
2022-11-21T23:09:36.942Z,5.00
2022-11-21T23:12:05.010Z,5.00
2022-11-21T23:14:32.875Z,5.00
2022-11-21T23:17:02.316Z,5.00
2022-11-21T23:19:30.852Z,5.00
2022-11-21T23:21:59.001Z,5.00
2022-11-21T23:24:26.940Z,5.00
2022-11-21T23:26:54.800Z,5.10
2022-11-21T23:29:22.774Z,5.00
2022-11-21T23:31:50.650Z,5.00
2022-11-21T23:34:19.996Z,5.10
2022-11-21T23:36:48.036Z,5.10
2022-11-21T23:39:16.223Z,5.10
2022-11-21T23:41:44.141Z,5.10
2022-11-21T23:44:12.359Z,5.10
2022-11-21T23:46:40.373Z,5.10
2022-11-21T23:49:08.298Z,5.10
2022-11-21T23:51:37.699Z,5.20
2022-11-21T23:54:05.766Z,5.20
2022-11-21T23:56:34.283Z,5.20
2022-11-21T23:59:02.272Z,5.20
